Time;durP1;ratioP1;P1;durP2;ratioP2;P2;SDS_P1;SDS_P2;PMS_P1;PMS_P2;Temp;Humidity;BMP_temperature;BMP_pressure;BME280_temperature;BME280_humidity;BME280_pressure;Samples;Min_cycle;Max_cycle;Signal;HPM_P1;HPM_P2
2022/04/23 00:02:23;;;;;;;48.22;24.35;;;;;;;7.43;100.00;94244.38;5084792;28;20508;-77
2022/04/23 00:04:48;;;;;;;49.03;24.65;;;;;;;7.40;100.00;94238.94;5077742;28;20565;-78
2022/04/23 00:07:14;;;;;;;48.15;24.73;;;;;;;7.29;100.00;94239.03;5069637;28;20466;-78
2022/04/23 00:09:39;;;;;;;48.78;25.00;;;;;;;7.38;100.00;94241.81;5068812;28;20041;-77
2022/04/23 00:12:05;;;;;;;49.67;26.13;;;;;;;7.32;100.00;94242.94;5070902;28;20072;-78
2022/04/23 00:14:31;;;;;;;50.60;25.08;;;;;;;7.20;100.00;94240.72;5068505;28;20049;-78
2022/04/23 00:17:00;;;;;;;50.15;25.27;;;;;;;7.28;100.00;94236.72;5078168;28;21930;-77
2022/04/23 00:19:26;;;;;;;48.85;25.65;;;;;;;7.48;100.00;94229.69;5086296;28;20036;-77
2022/04/23 00:21:51;;;;;;;46.10;23.80;;;;;;;7.50;100.00;94232.78;5076509;28;20081;-78
2022/04/23 00:24:17;;;;;;;45.45;23.27;;;;;;;7.33;100.00;94226.19;5068225;28;20087;-78
2022/04/23 00:26:42;;;;;;;47.00;24.90;;;;;;;7.15;100.00;94227.69;5067593;28;20060;-78
2022/04/23 00:29:08;;;;;;;48.20;24.60;;;;;;;7.15;100.00;94232.16;5092063;28;20048;-78
2022/04/23 00:31:36;;;;;;;50.10;24.67;;;;;;;7.34;100.00;94235.59;5072694;28;20633;-78
2022/04/23 00:34:02;;;;;;;50.00;24.73;;;;;;;7.26;100.00;94225.75;5072273;28;20118;-78
2022/04/23 00:36:28;;;;;;;46.40;24.10;;;;;;;7.13;100.00;94226.44;5078562;28;20040;-78
2022/04/23 00:38:54;;;;;;;49.20;24.45;;;;;;;7.25;100.00;94226.81;5091875;28;20463;-78
2022/04/23 00:44:06;;;;;;;51.45;24.52;;;;;;;7.26;100.00;94228.38;5064367;28;20098;-77
2022/04/23 00:46:31;;;;;;;48.40;24.38;;;;;;;7.14;100.00;94233.19;5092657;28;20105;-76
2022/04/23 00:49:00;;;;;;;51.60;25.20;;;;;;;6.97;100.00;94231.81;5071899;28;20644;-77
2022/04/23 00:51:28;;;;;;;48.80;25.42;;;;;;;6.94;100.00;94232.38;5069429;28;20482;-78
2022/04/23 00:53:54;;;;;;;47.63;23.83;;;;;;;6.92;100.00;94229.25;5059828;28;20044;-77
2022/04/23 00:56:20;;;;;;;45.38;23.45;;;;;;;7.11;100.00;94229.31;5073032;28;20044;-79
2022/04/23 00:58:46;;;;;;;49.50;24.33;;;;;;;6.91;100.00;94232.91;5068675;28;20042;-78
2022/04/23 01:01:12;;;;;;;56.28;27.33;;;;;;;6.89;100.00;94235.81;5089255;28;20577;-78
2022/04/23 01:03:37;;;;;;;56.78;27.25;;;;;;;6.79;100.00;94229.91;5078087;28;20640;-77
2022/04/23 01:06:03;;;;;;;53.55;25.70;;;;;;;6.80;100.00;94232.25;5077374;28;20044;-77
2022/04/23 01:08:30;;;;;;;59.70;27.33;;;;;;;6.70;100.00;94238.34;5060230;28;20029;-77
2022/04/23 01:10:55;;;;;;;59.05;28.00;;;;;;;6.75;100.00;94235.69;5077663;28;20378;-77
2022/04/23 01:13:25;;;;;;;64.03;29.83;;;;;;;6.66;100.00;94234.72;5075022;28;20120;-77
2022/04/23 01:16:09;;;;;;;56.75;28.50;;;;;;;6.67;100.00;94228.44;5076491;28;20040;-78
2022/04/23 01:18:39;;;;;;;57.17;28.20;;;;;;;6.57;100.00;94239.00;5083171;28;20544;-78
2022/04/23 01:21:05;;;;;;;59.20;27.58;;;;;;;6.71;100.00;94231.25;5086965;28;20052;-78
2022/04/23 01:23:31;;;;;;;61.70;28.23;;;;;;;6.72;100.00;94231.03;5084778;28;20529;-78
2022/04/23 01:26:00;;;;;;;58.30;26.35;;;;;;;6.65;100.00;94233.19;5070658;28;20041;-78
2022/04/23 01:28:27;;;;;;;54.55;27.23;;;;;;;6.69;100.00;94228.94;5054596;28;20107;-78
2022/04/23 01:30:54;;;;;;;55.63;25.90;;;;;;;6.69;100.00;94231.53;5086044;28;20545;-78
2022/04/23 01:33:20;;;;;;;51.33;24.40;;;;;;;6.55;100.00;94247.09;5070862;28;20062;-78
2022/04/23 01:35:46;;;;;;;55.80;25.23;;;;;;;6.48;100.00;94251.88;5071079;28;20044;-78
2022/04/23 01:38:13;;;;;;;50.42;23.70;;;;;;;6.67;100.00;94243.34;5071328;28;20497;-77
2022/04/23 01:40:40;;;;;;;53.15;24.30;;;;;;;6.63;100.00;94248.34;5075366;28;20040;-77
2022/04/23 01:43:05;;;;;;;45.35;21.08;;;;;;;6.45;100.00;94251.63;5069695;28;20098;-78
2022/04/23 01:45:31;;;;;;;49.03;22.45;;;;;;;6.64;100.00;94249.09;5065237;28;20049;-78
2022/04/23 01:47:57;;;;;;;45.10;20.67;;;;;;;6.63;100.00;94248.34;5071163;28;20037;-78
2022/04/23 01:50:22;;;;;;;46.33;22.15;;;;;;;6.55;100.00;94251.53;5071255;28;20053;-78
2022/04/23 01:52:48;;;;;;;45.63;21.63;;;;;;;6.49;100.00;94252.63;5067816;28;20036;-78
2022/04/23 01:55:14;;;;;;;46.50;22.27;;;;;;;6.65;100.00;94254.09;5079900;28;20498;-78
2022/04/23 01:57:40;;;;;;;46.97;22.27;;;;;;;6.66;100.00;94258.25;5057405;28;20056;-78
2022/04/23 02:00:08;;;;;;;42.95;21.20;;;;;;;6.55;100.00;94248.91;5073581;28;20056;-78
2022/04/23 02:02:36;;;;;;;46.15;21.75;;;;;;;6.45;100.00;94251.63;5075621;28;20048;-78
2022/04/23 02:05:06;;;;;;;44.92;21.48;;;;;;;6.43;100.00;94249.28;5078853;28;20044;-77
2022/04/23 02:07:39;;;;;;;44.38;20.35;;;;;;;6.71;100.00;94250.38;5069251;28;20552;-78
2022/04/23 02:10:06;;;;;;;44.35;20.70;;;;;;;6.67;100.00;94254.56;5074395;28;20048;-78
2022/04/23 02:12:31;;;;;;;49.00;22.23;;;;;;;6.52;100.00;94252.09;5083189;28;20036;-78
2022/04/23 02:14:57;;;;;;;48.78;22.92;;;;;;;6.47;100.00;94254.75;5078043;28;20063;-79
2022/04/23 02:17:32;;;;;;;47.88;22.00;;;;;;;6.70;100.00;94258.47;5070109;28;20063;-78
2022/04/23 02:20:02;;;;;;;44.13;21.65;;;;;;;6.64;100.00;94255.13;5090446;28;20033;-79
2022/04/23 02:22:28;;;;;;;46.40;21.35;;;;;;;6.54;100.00;94250.00;5069830;28;20090;-78
2022/04/23 02:24:53;;;;;;;48.67;21.77;;;;;;;6.50;100.00;94235.91;5083139;28;20032;-78
2022/04/23 02:27:19;;;;;;;47.97;22.02;;;;;;;6.41;100.00;94241.72;5059861;28;20050;-78
2022/04/23 02:29:45;;;;;;;44.92;21.50;;;;;;;6.52;100.00;94246.88;5068978;28;20040;-78
2022/04/23 02:32:10;;;;;;;44.35;21.73;;;;;;;6.51;100.00;94245.31;5089493;28;20044;-78
2022/04/23 02:34:35;;;;;;;47.45;22.15;;;;;;;6.40;100.00;94245.38;5076069;28;20043;-78
2022/04/23 02:37:01;;;;;;;47.50;21.20;;;;;;;6.57;100.00;94242.38;5071102;28;20039;-78
2022/04/23 02:39:27;;;;;;;46.15;21.33;;;;;;;6.46;100.00;94237.50;5088631;28;20043;-77
2022/04/23 02:41:52;;;;;;;50.70;23.23;;;;;;;6.29;100.00;94228.22;5105898;28;20040;-78
2022/04/23 02:44:19;;;;;;;44.75;21.35;;;;;;;6.35;100.00;94237.59;5064520;28;20037;-77
2022/04/23 02:46:45;;;;;;;47.35;22.27;;;;;;;6.55;100.00;94228.00;5068313;28;20040;-78
2022/04/23 02:49:11;;;;;;;43.70;21.67;;;;;;;6.49;100.00;94226.50;5070057;28;20044;-78
2022/04/23 02:51:37;;;;;;;47.72;21.63;;;;;;;6.49;100.00;94231.72;5075309;28;20119;-78
2022/04/23 02:54:02;;;;;;;46.72;21.30;;;;;;;6.47;100.00;94239.06;5064498;28;20048;-78
2022/04/23 02:56:28;;;;;;;46.35;22.17;;;;;;;6.41;100.00;94241.72;5067872;28;20097;-78
2022/04/23 02:58:54;;;;;;;50.13;23.45;;;;;;;6.39;100.00;94238.63;5069980;28;20441;-78
2022/04/23 03:01:22;;;;;;;48.70;23.85;;;;;;;6.21;100.00;94236.66;5078639;28;20040;-77
2022/04/23 03:03:48;;;;;;;52.78;23.65;;;;;;;6.26;100.00;94234.00;5073487;28;20139;-78
2022/04/23 03:06:17;;;;;;;52.75;23.05;;;;;;;6.31;100.00;94236.56;5077898;28;20491;-78
2022/04/23 03:08:42;;;;;;;49.83;22.88;;;;;;;6.23;100.00;94239.75;5089022;28;20112;-77
2022/04/23 03:11:08;;;;;;;49.90;22.38;;;;;;;6.41;100.00;94236.50;5070370;28;20123;-78
2022/04/23 03:13:35;;;;;;;46.75;22.02;;;;;;;6.31;100.00;94239.19;5065964;28;20044;-78
2022/04/23 03:16:01;;;;;;;49.83;23.15;;;;;;;6.40;100.00;94240.16;5072749;28;20040;-78
2022/04/23 03:18:27;;;;;;;49.60;21.83;;;;;;;6.45;100.00;94235.94;5079434;28;20040;-76
2022/04/23 03:20:53;;;;;;;49.75;22.92;;;;;;;6.27;100.00;94240.00;5077829;28;20644;-77
2022/04/23 03:23:19;;;;;;;49.42;21.63;;;;;;;6.38;100.00;94247.50;5093102;28;20054;-77
2022/04/23 03:25:45;;;;;;;50.55;22.85;;;;;;;6.36;100.00;94249.59;5085126;28;20048;-78
2022/04/23 03:28:13;;;;;;;50.40;22.67;;;;;;;6.24;100.00;94246.56;5058288;28;20517;-77
2022/04/23 03:30:40;;;;;;;51.25;22.50;;;;;;;6.16;100.00;94249.75;5078986;28;20490;-77
2022/04/23 03:33:06;;;;;;;53.55;23.50;;;;;;;6.04;100.00;94250.84;5077573;28;20056;-77
2022/04/23 03:35:31;;;;;;;51.08;22.48;;;;;;;6.04;100.00;94253.47;5070880;28;20048;-78
2022/04/23 03:37:58;;;;;;;51.75;22.92;;;;;;;6.32;100.00;94248.59;5081423;28;20041;-78
2022/04/23 03:40:24;;;;;;;46.70;22.90;;;;;;;6.18;100.00;94242.44;5071325;28;20051;-77
2022/04/23 03:42:50;;;;;;;51.30;22.35;;;;;;;6.14;100.00;94247.41;5065819;28;20143;-77
2022/04/23 03:45:19;;;;;;;54.63;23.48;;;;;;;6.08;100.00;94248.50;5059685;28;20111;-78
2022/04/23 03:47:48;;;;;;;51.70;23.92;;;;;;;6.00;100.00;94247.22;5069087;28;20029;-78
2022/04/23 03:50:14;;;;;;;49.10;22.65;;;;;;;6.27;100.00;94240.78;5086737;28;20044;-78
2022/04/23 03:52:40;;;;;;;48.70;22.67;;;;;;;6.02;100.00;94246.94;5071312;28;20063;-78
2022/04/23 03:55:06;;;;;;;49.03;22.02;;;;;;;6.02;100.00;94234.69;5071818;28;20549;-76
2022/04/23 03:57:42;;;;;;;45.67;21.73;;;;;;;6.11;100.00;94242.72;5067202;28;20127;-76
2022/04/23 04:00:09;;;;;;;52.17;23.80;;;;;;;5.94;100.00;94235.22;5087782;28;20040;-77
2022/04/23 04:02:35;;;;;;;50.35;22.55;;;;;;;5.95;100.00;94228.97;5073024;28;20048;-78
2022/04/23 04:05:00;;;;;;;53.33;23.55;;;;;;;5.87;100.00;94243.34;5073540;28;20418;-78
2022/04/23 04:07:27;;;;;;;51.08;23.17;;;;;;;6.11;100.00;94234.13;5061030;28;20068;-78
2022/04/23 04:09:52;;;;;;;51.17;22.98;;;;;;;5.97;100.00;94246.97;5068295;28;20052;-79
2022/04/23 04:12:18;;;;;;;50.30;22.27;;;;;;;5.91;100.00;94243.59;5072793;28;20037;-79
2022/04/23 04:14:43;;;;;;;51.72;22.10;;;;;;;5.99;100.00;94245.69;5071442;28;20048;-78
2022/04/23 04:17:10;;;;;;;54.42;23.27;;;;;;;5.99;100.00;94243.06;5070722;28;20410;-78
2022/04/23 04:19:36;;;;;;;54.13;23.90;;;;;;;6.01;100.00;94242.81;5092814;28;20043;-77
2022/04/23 04:22:03;;;;;;;54.42;23.42;;;;;;;5.96;100.00;94240.97;5075208;28;20045;-77
2022/04/23 04:24:31;;;;;;;49.42;21.73;;;;;;;6.27;100.00;94235.56;5070020;28;20554;-78
2022/04/23 04:26:57;;;;;;;51.05;21.33;;;;;;;6.36;100.00;94233.13;5060393;28;20053;-77
2022/04/23 04:29:25;;;;;;;50.08;21.98;;;;;;;6.26;100.00;94226.16;5090126;28;20043;-78
2022/04/23 04:31:51;;;;;;;47.85;21.35;;;;;;;6.09;100.00;94228.38;5073546;28;20052;-78
2022/04/23 04:34:18;;;;;;;53.78;22.92;;;;;;;6.02;100.00;94219.03;5081923;28;20111;-77
2022/04/23 04:36:46;;;;;;;49.95;20.77;;;;;;;6.03;100.00;94220.59;5073699;28;20043;-78
2022/04/23 04:39:13;;;;;;;52.45;22.88;;;;;;;5.98;100.00;94225.06;5080906;28;20242;-77
2022/04/23 04:41:39;;;;;;;50.58;22.17;;;;;;;6.04;100.00;94219.53;5072245;28;20108;-78
2022/04/23 04:44:05;;;;;;;49.13;20.52;;;;;;;6.25;100.00;94222.00;5072961;28;20128;-77
2022/04/23 04:46:34;;;;;;;50.70;21.65;;;;;;;6.27;100.00;94219.88;5069440;28;20045;-77
2022/04/23 04:49:01;;;;;;;48.67;19.85;;;;;;;6.26;100.00;94213.09;5085566;28;20044;-77
2022/04/23 04:51:27;;;;;;;51.85;22.15;;;;;;;6.00;100.00;94210.66;5080416;28;20040;-77
2022/04/23 04:53:53;;;;;;;52.17;22.10;;;;;;;6.03;100.00;94215.38;5071928;28;20055;-77
2022/04/23 04:56:19;;;;;;;52.60;22.15;;;;;;;6.01;100.00;94217.44;5070112;28;20044;-78
2022/04/23 04:58:46;;;;;;;52.13;22.05;;;;;;;5.98;100.00;94212.78;5072576;28;20180;-77
2022/04/23 05:01:12;;;;;;;58.35;23.30;;;;;;;5.91;100.00;94217.50;5082515;28;20455;-78
2022/04/23 05:03:39;;;;;;;53.78;21.75;;;;;;;6.15;100.00;94216.81;5070107;28;20055;-77
2022/04/23 05:06:06;;;;;;;57.17;22.77;;;;;;;5.97;100.00;94216.44;5060066;28;20049;-77
2022/04/23 05:08:32;;;;;;;55.10;23.02;;;;;;;5.97;100.00;94216.44;5089580;28;20413;-78
2022/04/23 05:10:57;;;;;;;59.85;22.70;;;;;;;6.04;100.00;94226.59;5092044;28;20044;-78
2022/04/23 05:13:22;;;;;;;57.58;23.85;;;;;;;5.99;100.00;94230.03;5076870;28;20036;-77
2022/04/23 05:15:48;;;;;;;49.92;22.20;;;;;;;5.93;100.00;94231.06;5072239;28;20044;-78
2022/04/23 05:18:14;;;;;;;54.80;22.77;;;;;;;6.09;100.00;94238.81;5083560;28;20036;-78
2022/04/23 05:20:40;;;;;;;56.40;21.90;;;;;;;6.13;100.00;94242.47;5074436;28;20037;-78
2022/04/23 05:23:06;;;;;;;52.85;21.55;;;;;;;6.26;100.00;94234.00;5071475;28;20052;-77
2022/04/23 05:25:31;;;;;;;49.53;20.40;;;;;;;6.18;100.00;94243.19;5081783;28;20040;-76
2022/04/23 05:27:58;;;;;;;51.20;21.77;;;;;;;6.04;100.00;94240.41;5076105;28;20115;-77
2022/04/23 05:30:24;;;;;;;47.25;19.95;;;;;;;6.12;100.00;94238.28;5091755;28;20501;-79
2022/04/23 05:32:49;;;;;;;51.58;21.25;;;;;;;6.28;100.00;94231.91;5087896;28;20043;-78
2022/04/23 05:35:15;;;;;;;53.88;20.45;;;;;;;6.23;100.00;94234.53;5072990;28;20044;-78
2022/04/23 05:37:40;;;;;;;52.08;21.08;;;;;;;6.42;100.00;94226.81;5086563;28;20043;-77
2022/04/23 05:40:07;;;;;;;56.38;22.45;;;;;;;6.30;100.00;94219.34;5093909;28;20093;-79
2022/04/23 05:42:33;;;;;;;53.40;21.55;;;;;;;6.16;100.00;94223.63;5078396;28;20046;-77
2022/04/23 05:44:59;;;;;;;51.22;19.00;;;;;;;6.19;100.00;94223.06;5076114;28;20052;-77
2022/04/23 05:47:24;;;;;;;51.45;20.60;;;;;;;6.32;100.00;94232.91;5092735;28;20078;-78
2022/04/23 05:49:50;;;;;;;52.55;21.63;;;;;;;6.20;100.00;94230.63;5083263;28;20111;-78
2022/04/23 05:52:15;;;;;;;52.33;20.85;;;;;;;6.35;100.00;94227.16;5086355;28;20040;-78
2022/04/23 05:54:41;;;;;;;49.95;19.90;;;;;;;6.26;100.00;94218.31;5091987;28;20433;-77
2022/04/23 05:57:06;;;;;;;57.60;20.23;;;;;;;6.32;100.00;94226.91;5071200;28;20036;-77
2022/04/23 05:59:32;;;;;;;48.08;19.98;;;;;;;6.26;100.00;94222.78;5069924;28;20044;-77
2022/04/23 06:01:58;;;;;;;58.38;21.73;;;;;;;6.21;100.00;94215.75;5078459;28;20047;-77
2022/04/23 06:04:23;;;;;;;62.35;19.95;;;;;;;6.45;100.00;94225.50;5069837;28;20041;-77
2022/04/23 06:06:49;;;;;;;53.40;19.02;;;;;;;6.45;100.00;94225.50;5073709;28;20036;-77
2022/04/23 06:09:14;;;;;;;44.95;19.00;;;;;;;6.41;100.00;94239.09;5070942;28;20093;-77
2022/04/23 06:11:40;;;;;;;49.42;18.58;;;;;;;6.38;100.00;94241.50;5070669;28;20044;-76
2022/04/23 06:14:06;;;;;;;46.28;17.83;;;;;;;6.39;100.00;94245.66;5070556;28;20044;-77
2022/04/23 06:16:31;;;;;;;45.97;17.08;;;;;;;6.35;100.00;94248.03;5093627;28;20043;-77
2022/04/23 06:18:57;;;;;;;44.85;17.90;;;;;;;6.52;100.00;94244.25;5085978;28;20044;-77
2022/04/23 06:21:22;;;;;;;50.88;19.02;;;;;;;6.52;100.00;94236.41;5082738;28;20411;-77
2022/04/23 06:23:48;;;;;;;55.10;19.08;;;;;;;6.53;100.00;94237.97;5069342;28;20047;-76
2022/04/23 06:26:14;;;;;;;49.35;18.85;;;;;;;6.39;100.00;94233.38;5070188;28;20048;-76
2022/04/23 06:28:39;;;;;;;53.38;19.70;;;;;;;6.41;100.00;94231.28;5067792;28;20040;-75
2022/04/23 06:31:05;;;;;;;46.35;17.55;;;;;;;6.50;100.00;94228.06;5083046;28;20051;-77
2022/04/23 06:33:30;;;;;;;57.92;20.73;;;;;;;6.56;100.00;94232.19;5070084;28;20045;-78
2022/04/23 06:35:56;;;;;;;57.25;20.35;;;;;;;6.41;100.00;94231.28;5073896;28;20036;-76
2022/04/23 06:38:21;;;;;;;49.90;17.77;;;;;;;6.64;100.00;94234.22;5074361;28;20033;-76
2022/04/23 06:40:47;;;;;;;49.80;19.23;;;;;;;6.87;100.00;94226.69;5077135;28;20036;-75
2022/04/23 06:43:13;;;;;;;45.47;18.00;;;;;;;6.78;100.00;94220.50;5070119;28;20044;-76
2022/04/23 06:45:39;;;;;;;51.53;19.27;;;;;;;6.67;100.00;94233.66;5088866;28;20051;-78
2022/04/23 06:48:05;;;;;;;55.40;19.50;;;;;;;6.62;100.00;94228.47;5075597;28;20052;-78
2022/04/23 06:50:36;;;;;;;48.28;18.60;;;;;;;6.71;100.00;94233.88;5085847;28;20055;-77
2022/04/23 06:53:03;;;;;;;47.00;18.45;;;;;;;6.72;100.00;94251.13;5073408;28;20048;-76
2022/04/23 06:55:29;;;;;;;50.50;18.60;;;;;;;7.06;100.00;94240.59;5065601;28;20114;-76
2022/04/23 06:57:54;;;;;;;48.10;19.08;;;;;;;6.88;100.00;94243.91;5064667;28;20048;-78
2022/04/23 07:00:22;;;;;;;48.08;18.45;;;;;;;6.78;100.00;94236.19;5069782;28;20044;-77
2022/04/23 07:02:51;;;;;;;50.88;19.08;;;;;;;6.80;100.00;94247.16;5069262;28;20043;-74
2022/04/23 07:05:18;;;;;;;55.47;18.05;;;;;;;6.71;100.00;94239.91;5064679;28;20033;-73
2022/04/23 07:07:55;;;;;;;47.38;18.17;;;;;;;6.92;100.00;94234.47;5061497;28;20036;-76
2022/04/23 07:10:21;;;;;;;54.03;19.80;;;;;;;6.85;100.00;94234.03;5070528;28;20044;-77
2022/04/23 07:12:46;;;;;;;53.22;19.25;;;;;;;6.90;100.00;94228.75;5070468;28;20063;-77
2022/04/23 07:15:12;;;;;;;48.58;18.73;;;;;;;7.09;100.00;94234.03;5061216;28;20095;-76
2022/04/23 07:17:37;;;;;;;43.60;17.95;;;;;;;7.06;100.00;94230.13;5073046;28;20045;-77
2022/04/23 07:20:03;;;;;;;48.10;18.10;;;;;;;7.33;100.00;94236.66;5068909;28;20047;-77
2022/04/23 07:22:29;;;;;;;45.20;17.70;;;;;;;7.27;100.00;94237.78;5069657;28;20090;-75
2022/04/23 07:24:54;;;;;;;47.97;17.95;;;;;;;7.23;100.00;94239.41;5068143;28;20047;-76
2022/04/23 07:27:20;;;;;;;50.35;18.50;;;;;;;7.27;100.00;94235.16;5063190;28;20055;-77
2022/04/23 07:29:45;;;;;;;57.63;18.40;;;;;;;7.13;100.00;94229.81;5070542;28;20102;-76
2022/04/23 07:32:11;;;;;;;50.17;18.95;;;;;;;7.17;100.00;94224.78;5070971;28;20044;-77
2022/04/23 07:37:30;;;;;;;52.80;18.92;;;;;;;7.20;100.00;94224.25;5064639;28;20064;-76
2022/04/23 07:40:01;;;;;;;49.17;18.58;;;;;;;7.35;100.00;94228.53;5078175;28;20040;-77
2022/04/23 07:42:28;;;;;;;46.97;16.50;;;;;;;7.41;100.00;94220.34;5079579;28;20040;-75
2022/04/23 07:44:54;;;;;;;45.83;17.52;;;;;;;7.53;100.00;94229.59;5069048;28;20115;-75
2022/04/23 07:47:19;;;;;;;50.97;18.58;;;;;;;7.40;100.00;94216.16;5084307;28;20064;-78
2022/04/23 07:49:46;;;;;;;54.53;19.50;;;;;;;7.28;100.00;94221.00;5069148;28;20523;-77
2022/04/23 07:52:12;;;;;;;49.95;18.75;;;;;;;7.21;100.00;94217.94;5065231;28;20116;-77
2022/04/23 07:54:38;;;;;;;47.60;18.38;;;;;;;7.43;100.00;94218.22;5071740;28;20112;-75
2022/04/23 07:57:08;;;;;;;51.88;19.60;;;;;;;7.22;100.00;94212.44;5060972;28;20037;-76
2022/04/23 07:59:37;;;;;;;55.85;19.58;;;;;;;7.33;100.00;94213.09;5062906;28;20047;-79
2022/04/23 08:02:03;;;;;;;47.70;18.30;;;;;;;7.36;100.00;94207.31;5088974;28;20040;-77
2022/04/23 08:04:29;;;;;;;49.00;18.77;;;;;;;7.39;100.00;94206.75;5081641;28;20048;-78
2022/04/23 08:06:54;;;;;;;53.75;19.27;;;;;;;7.45;100.00;94200.38;5073277;28;20505;-77
2022/04/23 08:09:20;;;;;;;53.88;19.38;;;;;;;7.50;100.00;94193.53;5070592;28;20412;-76
2022/04/23 08:11:45;;;;;;;50.55;17.83;;;;;;;7.71;100.00;94205.28;5069563;28;20040;-79
2022/04/23 08:14:11;;;;;;;49.47;18.65;;;;;;;7.82;100.00;94207.78;5076769;28;20036;-76
2022/04/23 08:16:36;;;;;;;49.42;19.67;;;;;;;7.76;100.00;94199.22;5075256;28;20036;-76
2022/04/23 08:19:02;;;;;;;54.63;19.83;;;;;;;7.79;100.00;94204.66;5089260;28;20048;-77
2022/04/23 08:21:28;;;;;;;44.33;17.13;;;;;;;8.06;100.00;94198.00;5101938;28;20044;-79
2022/04/23 08:23:54;;;;;;;47.72;18.98;;;;;;;7.97;100.00;94199.69;5061561;28;20045;-76
2022/04/23 08:26:21;;;;;;;49.10;19.08;;;;;;;8.21;100.00;94198.81;5074699;28;20056;-76
2022/04/23 08:31:30;;;;;;;53.65;20.23;;;;;;;7.94;100.00;94200.25;5073036;28;20063;-77
2022/04/23 08:33:59;;;;;;;50.85;19.90;;;;;;;7.99;100.00;94202.81;5066387;28;20483;-76
2022/04/23 08:36:35;;;;;;;46.75;19.05;;;;;;;8.15;100.00;94206.75;5078371;28;20048;-78
2022/04/23 08:39:05;;;;;;;52.13;20.92;;;;;;;8.45;98.13;94210.00;5069421;28;20041;-76
2022/04/23 08:41:31;;;;;;;49.15;19.73;;;;;;;8.40;98.65;94212.66;5081015;28;20044;-75
2022/04/23 08:44:05;;;;;;;49.97;20.80;;;;;;;8.44;97.42;94213.69;5069131;28;20122;-78
2022/04/23 08:46:39;;;;;;;46.20;19.15;;;;;;;8.38;98.27;94220.03;5063280;28;20044;-78
2022/04/23 08:49:11;;;;;;;47.70;19.95;;;;;;;8.36;98.70;94219.56;5079248;28;20041;-79
2022/04/23 08:51:38;;;;;;;53.97;21.70;;;;;;;8.61;98.21;94217.63;5075604;28;20105;-78
2022/04/23 08:54:10;;;;;;;51.50;20.35;;;;;;;8.77;95.83;94211.03;5063105;28;20059;-76
2022/04/23 08:56:37;;;;;;;52.75;21.08;;;;;;;8.52;97.35;94208.84;5052998;28;20037;-75
2022/04/23 08:59:04;;;;;;;51.38;20.88;;;;;;;8.60;98.17;94210.81;5053067;28;20049;-77
2022/04/23 09:01:34;;;;;;;46.92;20.35;;;;;;;8.49;97.75;94210.97;5068260;28;20044;-78
2022/04/23 09:04:01;;;;;;;51.65;23.02;;;;;;;8.47;97.62;94213.09;5081413;28;20499;-77
2022/04/23 09:06:48;;;;;;;46.33;21.17;;;;;;;8.98;94.28;94205.44;5071738;28;20036;-78
2022/04/23 09:09:20;;;;;;;50.63;21.23;;;;;;;8.67;95.77;94205.97;5089058;28;20086;-77
2022/04/23 09:11:49;;;;;;;47.45;21.48;;;;;;;8.87;94.29;94198.81;5074759;28;20041;-76
2022/04/23 09:14:41;;;;;;;48.38;21.30;;;;;;;8.72;95.63;94198.03;5072527;28;20093;-77
2022/04/23 09:25:31;;;;;;;;;;;;;;;9.23;93.10;94206.03;5061915;28;20581;-77
2022/04/23 09:28:12;;;;;;;42.20;18.95;;;;;;;9.18;92.98;94199.81;5073551;28;19974;-77
2022/04/23 09:30:38;;;;;;;44.47;20.42;;;;;;;9.15;92.20;94195.13;5071737;28;20654;-78
2022/04/23 09:33:03;;;;;;;44.20;19.90;;;;;;;9.36;91.58;94194.72;5078621;28;20051;-77
2022/04/23 09:35:29;;;;;;;40.40;18.20;;;;;;;9.63;90.99;94195.78;5083091;28;20041;-77
2022/04/23 09:38:12;;;;;;;44.83;20.35;;;;;;;9.67;89.84;94194.13;5071917;28;20251;-77
2022/04/23 09:40:38;;;;;;;38.60;18.27;;;;;;;9.84;90.11;94194.25;5089447;28;20136;-77
2022/04/23 09:43:11;;;;;;;41.28;18.95;;;;;;;10.38;86.92;94204.13;5090848;28;20036;-77
2022/04/23 09:45:43;;;;;;;40.72;17.25;;;;;;;10.38;87.28;94206.75;5087899;28;20111;-77
2022/04/23 09:48:12;;;;;;;35.05;17.55;;;;;;;10.43;86.73;94198.75;5070689;28;20521;-78
2022/04/23 09:50:42;;;;;;;35.65;17.65;;;;;;;10.46;86.12;94198.13;5072838;28;20036;-77
2022/04/23 09:53:27;;;;;;;34.65;16.90;;;;;;;10.49;86.59;94192.28;5088589;28;20047;-77
2022/04/23 09:56:01;;;;;;;35.47;17.55;;;;;;;10.47;86.36;94191.78;5088203;28;20089;-77
2022/04/23 09:58:30;;;;;;;36.40;16.83;;;;;;;10.42;86.82;94191.16;5051374;28;20049;-77
2022/04/23 10:00:58;;;;;;;34.05;16.83;;;;;;;10.37;85.62;94189.41;5088266;28;20040;-77
2022/04/23 10:03:31;;;;;;;32.35;16.13;;;;;;;10.53;85.84;94187.97;5070038;28;20082;-77
2022/04/23 10:05:58;;;;;;;32.28;15.70;;;;;;;10.50;85.04;94180.69;5060882;28;20048;-77
2022/04/23 10:08:26;;;;;;;35.20;15.77;;;;;;;10.27;84.91;94179.09;5070803;28;20037;-77
2022/04/23 10:10:59;;;;;;;29.00;14.88;;;;;;;10.63;83.85;94180.88;5068330;28;20063;-77
2022/04/23 10:13:29;;;;;;;28.30;14.97;;;;;;;10.86;83.44;94179.78;5065389;28;20086;-76
2022/04/23 10:15:57;;;;;;;28.13;14.32;;;;;;;10.76;82.46;94172.16;5065626;28;20181;-77
2022/04/23 10:18:23;;;;;;;30.08;14.38;;;;;;;11.21;82.34;94169.38;5069387;28;20044;-77
2022/04/23 10:20:55;;;;;;;27.48;14.02;;;;;;;11.86;79.17;94171.47;5068318;28;20056;-77
2022/04/23 10:23:46;;;;;;;33.10;14.38;;;;;;;12.05;79.05;94163.28;5052739;28;20540;-77
2022/04/23 10:26:35;;;;;;;26.33;13.23;;;;;;;12.21;78.01;94161.75;5064264;28;20045;-76
2022/04/23 10:29:13;;;;;;;27.77;14.18;;;;;;;12.32;77.69;94167.44;5062859;28;20132;-77
2022/04/23 10:31:39;;;;;;;26.42;14.20;;;;;;;12.42;76.23;94155.81;5050189;28;20502;-77
2022/04/23 10:34:05;;;;;;;26.05;13.52;;;;;;;12.76;75.93;94164.72;5050000;28;20059;-77
2022/04/23 10:36:30;;;;;;;29.05;14.82;;;;;;;12.87;74.77;94150.06;5075814;28;20041;-77
2022/04/23 10:39:19;;;;;;;28.60;15.15;;;;;;;12.98;71.83;94167.09;5080019;28;20044;-77
2022/04/23 10:41:46;;;;;;;28.83;14.95;;;;;;;12.65;74.25;94165.03;5059326;28;20120;-77
2022/04/23 10:44:12;;;;;;;29.13;16.00;;;;;;;12.68;74.88;94168.16;5051189;28;20045;-81
2022/04/23 10:46:38;;;;;;;26.50;14.57;;;;;;;13.20;73.91;94167.94;5072341;28;20524;-77
2022/04/23 10:49:18;;;;;;;29.02;16.70;;;;;;;12.69;73.66;94180.28;5069434;28;20049;-78
2022/04/23 10:51:47;;;;;;;30.98;17.90;;;;;;;12.52;72.69;94170.53;5076996;28;20029;-78
2022/04/23 10:54:16;;;;;;;31.70;17.88;;;;;;;13.56;70.72;94174.66;5050494;28;20052;-76
2022/04/23 10:56:43;;;;;;;29.73;16.63;;;;;;;13.79;69.56;94169.81;5061635;28;20040;-75
2022/04/23 10:59:43;;;;;;;36.67;19.52;;;;;;;13.72;69.46;94176.69;5070041;28;20040;-75
2022/04/23 11:02:18;;;;;;;36.50;19.13;;;;;;;13.10;72.45;94173.59;5074464;28;20398;-77
2022/04/23 11:13:31;;;;;;;33.22;18.38;;;;;;;12.86;72.58;94179.44;5076207;28;20040;-78
2022/04/23 11:16:16;;;;;;;31.85;17.23;;;;;;;13.33;71.07;94171.47;5082694;28;20032;-76
2022/04/23 11:18:46;;;;;;;27.67;15.27;;;;;;;13.66;69.00;94174.25;5070000;28;20048;-75
2022/04/23 11:21:18;;;;;;;31.45;17.08;;;;;;;13.68;69.49;94176.59;5070056;28;20074;-75
2022/04/23 11:23:45;;;;;;;40.53;20.63;;;;;;;12.75;71.71;94179.00;5068373;28;20040;-73
2022/04/23 11:26:17;;;;;;;40.53;20.45;;;;;;;12.77;72.51;94168.91;5071857;28;20096;-74
2022/04/23 11:28:45;;;;;;;39.90;21.98;;;;;;;12.29;73.89;94174.13;5070898;28;20055;-73
2022/04/23 11:31:13;;;;;;;45.75;21.73;;;;;;;12.44;74.57;94174.72;5079229;28;20047;-73
2022/04/23 11:33:49;;;;;;;43.22;21.88;;;;;;;12.62;72.73;94170.97;5070427;28;20094;-74
2022/04/23 11:36:15;;;;;;;44.80;21.88;;;;;;;12.73;72.33;94154.78;5064703;28;20111;-73
2022/04/23 11:38:44;;;;;;;46.35;21.50;;;;;;;12.54;72.60;94158.56;5069076;28;20157;-73
2022/04/23 11:41:10;;;;;;;43.15;21.85;;;;;;;12.32;73.89;94161.41;5069202;28;20114;-74
2022/04/23 11:43:39;;;;;;;42.20;20.98;;;;;;;12.71;73.88;94152.47;5069004;28;20075;-73
2022/04/23 11:46:07;;;;;;;41.13;20.63;;;;;;;13.07;72.60;94142.53;5049541;28;20136;-74
2022/04/23 11:48:40;;;;;;;44.42;21.85;;;;;;;12.95;71.13;94141.34;5085386;28;20051;-73